Date,TemperatureHighF,TemperatureAvgF,TemperatureLowF,DewpointHighF,DewpointAvgF,DewpointLowF,HumidityHigh,HumidityAvg,HumidityLow,PressureMaxIn,PressureMinIn,WindSpeedMaxMPH,WindSpeedAvgMPH,GustSpeedMaxMPH,PrecipitationSumIn
2013-1-1,40.0,35.0,25.0,29.0,22.8,10.0,74,61,50,29.62,29.53,5,3,12,0.00
2013-1-2,38.0,26.7,19.0,15.0,11.6,8.0,67,53,36,29.74,29.62,5,3,11,0.00
2013-1-3,44.0,29.1,23.0,18.0,15.3,13.0,69,57,32,29.74,29.68,4,2,8,0.00
2013-1-4,42.0,33.2,28.0,23.0,20.2,18.0,69,59,42,29.68,29.59,5,3,11,0.00
2013-1-5,53.0,35.3,27.0,25.0,20.6,17.0,87,57,31,29.80,29.62,6,2,13,0.00
2013-1-6,53.0,38.7,30.0,34.0,28.2,23.0,97,68,42,29.77,29.62,4,2,9,0.00
2013-1-7,57.0,39.3,25.0,30.0,25.4,21.0,89,60,28,29.88,29.65,4,2,9,0.00
2013-1-8,55.0,38.5,25.0,33.0,29.1,22.0,99,72,41,29.91,29.85,4,1,8,0.00
2013-1-9,55.0,40.1,27.0,41.0,33.5,27.0,99,79,49,29.88,29.71,5,1,12,0.00
2013-1-10,58.0,43.0,34.0,33.0,24.8,22.0,68,50,26,29.97,29.77,5,2,11,0.00
2013-1-11,46.0,39.1,29.0,43.0,32.8,23.0,99,79,60,29.97,29.68,2,1,5,0.00
2013-1-12,47.0,42.9,40.0,46.0,42.4,40.0,99,98,89,29.74,29.67,2,1,6,0.00
2013-1-13,49.0,44.1,40.0,46.0,43.5,40.0,99,97,86,29.74,29.65,3,1,7,0.00
2013-1-14,59.0,48.3,37.0,56.0,43.1,32.0,99,83,58,29.80,29.59,3,1,8,0.00
2013-1-15,39.0,35.8,33.0,34.0,28.6,24.0,98,76,60,29.84,29.77,2,1,7,0.00
2013-1-16,35.0,33.0,30.0,35.0,32.7,30.0,99,98,87,29.77,29.50,3,1,7,0.00
2013-1-17,49.0,38.8,33.0,34.0,27.9,23.0,95,66,42,29.68,29.56,4,2,10,0.00
2013-1-18,40.0,29.5,24.0,23.0,11.0,3.0,66,47,25,29.94,29.62,4,2,12,0.00
2013-1-19,56.0,39.5,27.0,35.0,23.5,12.0,75,53,33,29.88,29.59,5,3,12,0.00
2013-1-20,59.0,42.9,28.0,31.0,22.8,9.0,74,48,19,29.65,29.44,8,4,15,0.00
2013-1-21,36.0,28.0,21.0,20.0,12.1,6.0,73,51,40,29.68,29.53,4,2,9,0.00
2013-1-22,28.0,20.0,11.0,16.0,0.7,-10.0,65,43,24,29.74,29.50,6,4,13,0.00
2013-1-23,25.0,14.2,9.0,-1.0,-4.8,-10.0,57,42,27,29.77,29.74,5,3,10,0.00
2013-1-24,31.0,17.5,9.0,3.0,-0.9,-4.0,68,46,25,29.88,29.71,6,3,13,0.00
2013-1-25,31.0,17.9,11.0,17.0,5.4,-3.0,96,61,31,29.88,29.68,4,2,10,0.00
2013-1-26,41.0,22.3,11.0,16.0,9.3,3.0,91,61,33,29.85,29.65,4,2,9,0.00
2013-1-27,45.0,26.7,15.0,14.0,10.0,6.0,76,52,25,29.94,29.85,4,2,8,0.00
2013-1-28,34.0,28.5,20.0,34.0,25.0,12.0,99,87,63,29.94,29.62,4,1,8,0.00
2013-1-29,65.0,42.1,34.0,42.0,37.6,34.0,99,86,40,29.71,29.62,3,1,7,0.00
2013-1-30,56.0,46.9,38.0,51.0,46.5,38.0,99,98,81,29.68,29.26,6,2,15,0.00
2013-1-31,51.0,40.3,27.0,51.0,20.6,7.0,99,47,31,29.47,29.15,9,6,18,0.00
2013-2-1,33.0,26.1,22.0,13.0,5.4,-99.9,61,46,33,29.77,29.47,6,4,13,0.00
2013-2-2,39.0,24.9,18.0,20.0,9.2,5.0,92,53,31,29.82,29.68,4,2,9,0.00
2013-2-3,44.0,26.7,19.0,24.0,19.3,14.0,99,75,42,29.68,29.48,3,1,5,0.00
2013-2-4,38.0,27.2,21.0,21.0,10.7,7.0,77,51,31,29.62,29.50,6,3,12,0.00
2013-2-5,32.0,27.9,26.0,28.0,24.6,15.0,98,88,63,29.62,29.56,2,1,5,0.00
2013-2-6,46.0,32.6,26.0,31.0,20.9,6.0,99,66,36,29.85,29.56,5,2,10,0.00
2013-2-7,42.0,27.8,21.0,21.0,10.3,4.0,71,49,26,29.94,29.83,2,1,5,0.00
2013-2-8,34.0,30.5,26.0,34.0,28.7,21.0,99,93,72,29.83,29.36,5,3,14,0.00
2013-2-9,48.0,27.6,18.0,26.0,17.1,5.0,99,69,32,29.83,29.44,6,3,15,0.00
2013-2-10,69.0,30.3,12.0,24.0,12.5,5.0,88,56,14,29.94,29.83,3,1,6,0.00
2013-2-11,49.0,38.2,27.0,46.0,37.3,24.0,99,96,86,29.83,29.41,4,1,10,0.00
2013-2-12,51.0,40.1,34.0,38.0,26.7,23.0,99,60,37,29.60,29.44,6,3,12,0.00
2013-2-13,60.0,37.9,23.0,37.0,24.9,22.0,98,64,25,29.59,29.41,2,1,6,0.00
2013-2-14,64.0,39.2,28.0,35.0,29.7,23.0,99,75,24,29.62,29.44,3,1,8,0.00
2013-2-15,64.0,40.9,28.0,40.0,34.0,28.0,99,80,34,29.65,29.59,3,1,6,0.00
2013-2-16,47.0,35.1,27.0,34.0,25.9,15.0,99,71,41,29.59,29.44,3,2,9,0.00
2013-2-17,37.0,26.2,15.0,16.0,4.9,-1.0,61,41,25,29.62,29.38,9,5,17,0.00
2013-2-18,41.0,25.7,15.0,14.0,5.3,0.0,55,42,25,29.77,29.62,8,4,17,0.00
2013-2-19,53.0,37.5,25.0,42.0,30.6,14.0,99,77,48,29.77,29.41,7,2,14,0.00
2013-2-20,37.0,30.4,23.0,25.0,13.1,8.0,66,49,33,29.62,29.44,7,5,18,0.00
2013-2-21,42.0,28.2,21.0,14.0,11.6,8.0,69,50,32,29.80,29.62,7,4,16,0.00
2013-2-22,50.0,32.5,23.0,30.0,21.7,14.0,82,66,33,29.88,29.80,3,2,8,0.00
2013-2-23,44.0,36.9,32.0,44.0,36.1,30.0,99,97,84,29.80,29.50,3,2,10,0.00
2013-2-24,51.0,38.3,31.0,39.0,31.7,21.0,99,78,55,29.59,29.46,6,2,13,0.00
2013-2-25,60.0,38.4,27.0,28.0,24.2,21.0,80,59,29,29.77,29.59,4,1,8,0.00
2013-2-26,53.0,37.4,27.0,37.0,30.0,26.0,99,77,46,29.82,29.56,4,2,11,0.00
2013-2-27,51.0,42.7,35.0,49.0,40.6,34.0,99,92,76,29.56,29.29,5,3,17,0.00
2013-2-28,61.0,43.0,38.0,40.0,34.1,28.0,97,72,38,29.38,29.32,3,1,7,0.00
2013-3-1,51.0,39.6,32.0,32.0,28.2,25.0,86,65,45,29.47,29.35,4,2,9,0.00
2013-3-2,52.0,35.8,27.0,29.0,24.1,14.0,98,64,35,29.47,29.44,4,2,9,0.00
2013-3-3,48.0,32.6,26.0,27.0,20.0,16.0,94,62,33,29.47,29.41,5,3,12,0.00
2013-3-4,48.0,33.5,23.0,22.0,18.5,15.0,72,55,34,29.56,29.47,6,4,13,0.00
2013-3-5,60.0,40.2,28.0,29.0,23.8,18.0,76,55,28,29.65,29.56,4,2,10,0.00
2013-3-6,41.0,37.0,32.0,36.0,31.1,29.0,93,79,69,29.62,29.53,6,3,16,0.00
2013-3-7,39.0,33.1,29.0,33.0,30.8,26.0,99,91,75,29.67,29.56,5,3,12,0.00
2013-3-8,42.0,34.3,29.0,35.0,30.4,26.0,99,86,67,29.74,29.62,3,1,8,0.00
2013-3-9,72.0,45.4,30.0,31.0,25.3,21.0,99,52,18,29.83,29.72,3,1,9,0.00
2013-3-10,64.0,40.8,25.0,37.0,31.7,25.0,99,75,33,29.88,29.83,3,1,6,0.00
2013-3-11,60.0,45.5,37.0,46.0,40.5,34.0,99,84,54,29.83,29.71,4,2,9,0.00
2013-3-12,50.0,47.5,39.0,50.0,46.3,34.0,99,96,79,29.71,29.43,5,4,13,0.00
2013-3-13,61.0,43.9,32.0,37.0,28.7,21.0,99,60,31,29.56,29.50,5,2,11,0.00
2013-3-14,41.0,34.6,28.0,26.0,12.3,5.0,65,40,26,29.59,29.53,8,5,18,0.00
2013-3-15,50.0,37.1,27.0,29.0,17.2,6.0,63,45,28,29.62,29.44,5,3,11,0.00
2013-3-16,51.0,35.4,29.0,32.0,25.3,19.0,99,69,35,29.56,29.47,3,1,10,0.00
2013-3-17,42.0,33.6,27.0,29.0,18.6,9.0,97,58,35,29.83,29.56,5,2,10,0.00
2013-3-18,46.0,31.3,23.0,31.0,16.9,-99.9,99,61,34,29.88,29.65,5,2,10,0.00
2013-3-19,47.0,36.0,31.0,40.0,33.6,29.0,99,91,65,29.65,29.41,5,2,10,0.00
2013-3-20,54.0,38.9,30.0,29.0,19.0,15.0,80,46,27,29.56,29.50,6,3,13,0.00
2013-3-21,48.0,33.5,28.0,27.0,21.6,11.0,87,63,34,29.53,29.38,5,2,10,0.00
2013-3-22,48.0,35.2,27.0,20.0,16.2,12.0,65,46,31,29.56,29.44,5,3,11,0.00
2013-3-23,53.0,38.7,31.0,22.0,19.0,16.0,63,46,28,29.59,29.50,7,4,14,0.00
2013-3-24,59.0,40.5,29.0,26.0,21.4,17.0,68,49,24,29.59,29.44,5,2,9,0.00
2013-3-25,39.0,35.4,33.0,36.0,30.3,26.0,99,82,61,29.44,29.29,4,1,9,0.00
2013-3-26,63.0,42.6,31.0,35.0,28.6,25.0,99,62,27,29.53,29.35,4,1,9,0.00
2013-3-27,62.0,44.6,34.0,30.0,24.8,20.0,67,48,25,29.59,29.53,5,2,10,0.00
2013-3-28,62.0,44.9,35.0,34.0,29.4,27.0,77,56,32,29.68,29.59,5,2,9,0.00
2013-3-29,67.0,48.2,37.0,32.0,27.8,24.0,69,47,27,29.71,29.65,5,2,11,0.00
2013-3-30,71.0,48.5,35.0,34.0,28.3,19.0,92,51,20,29.74,29.68,3,1,7,0.00
2013-3-31,63.0,44.3,30.0,45.0,34.9,-99.9,99,77,34,29.71,29.41,5,2,12,0.00
2013-4-1,69.0,49.4,36.0,48.0,38.4,11.0,99,70,33,29.56,29.38,7,2,14,0.00
2013-4-2,50.0,38.0,30.0,17.0,11.6,-99.9,50,35,23,29.68,29.56,6,4,13,0.00
2013-4-3,52.0,38.9,30.0,15.0,11.3,8.0,45,32,21,29.80,29.68,7,4,14,0.00
2013-4-4,64.0,42.4,27.0,32.0,21.6,13.0,78,47,23,29.88,29.68,4,2,9,0.00
2013-4-5,73.0,50.2,38.0,36.0,25.9,16.0,83,45,16,29.68,29.44,5,2,12,0.00
2013-4-6,60.0,44.1,33.0,29.0,18.0,10.0,75,39,15,29.83,29.62,4,2,10,0.00
2013-4-7,61.0,46.2,35.0,43.0,35.8,27.0,95,69,43,29.83,29.65,6,3,15,0.00
2013-4-8,82.0,55.8,38.0,54.0,43.1,38.0,99,70,27,29.68,29.62,4,1,8,0.00
2013-4-9,88.0,66.0,45.0,54.0,43.6,34.0,98,54,16,29.65,29.59,7,2,13,0.00
2013-4-10,90.0,62.8,49.0,53.0,48.0,43.0,99,63,28,29.61,29.50,5,1,13,0.00
2013-4-11,65.0,53.8,43.0,55.0,48.2,36.0,99,83,53,29.65,29.47,4,2,12,0.00
2013-4-12,46.0,41.2,38.0,44.0,38.9,34.0,99,92,68,29.65,29.44,5,3,13,0.00
2013-4-13,72.0,48.1,37.0,41.0,37.3,34.0,99,71,29,29.62,29.45,3,2,8,0.00
2013-4-14,69.0,51.7,42.0,48.0,34.2,25.0,99,58,24,29.77,29.62,5,2,12,0.00
2013-4-15,70.0,50.4,38.0,38.0,30.2,25.0,85,49,25,29.88,29.77,4,1,8,0.00
2013-4-16,73.0,54.1,41.0,52.0,46.1,36.0,97,76,46,29.88,29.71,5,2,13,0.00
2013-4-17,82.0,61.4,47.0,54.0,43.6,35.0,97,60,21,29.82,29.71,3,1,8,0.00
2013-4-18,68.0,52.8,43.0,53.0,43.5,39.0,99,74,37,29.85,29.71,4,2,13,0.00
2013-4-19,74.0,58.0,50.0,61.0,55.5,50.0,99,92,61,29.71,29.41,6,3,17,0.00
2013-4-20,63.0,53.3,46.0,56.0,34.8,23.0,99,55,26,29.80,29.41,5,3,11,0.00
2013-4-21,46.0,37.3,28.0,30.0,21.4,14.0,75,53,43,30.06,29.80,3,2,10,0.00
2013-4-22,65.0,45.0,25.0,34.0,28.3,19.0,79,55,30,30.07,29.94,5,2,13,0.00
2013-4-23,52.0,43.9,39.0,40.0,35.9,31.0,84,74,63,29.94,29.68,3,2,12,0.00
2013-4-24,74.0,53.0,38.0,49.0,43.5,37.0,99,75,39,29.71,29.53,4,2,11,0.00
2013-4-25,74.0,56.7,43.0,50.0,33.8,24.0,99,49,16,29.80,29.56,5,2,11,0.00
2013-4-26,80.0,56.9,37.0,40.0,34.7,28.0,95,50,20,29.88,29.80,4,1,8,0.00
2013-4-27,81.0,58.5,42.0,38.0,31.0,22.0,73,41,14,29.89,29.83,3,1,7,0.00
2013-4-28,79.0,56.9,38.0,51.0,38.0,27.0,99,56,20,29.83,29.77,4,1,10,0.00
2013-4-29,59.0,52.6,49.0,49.0,45.5,43.0,87,77,66,29.80,29.74,2,1,8,0.00
2013-4-30,81.0,59.4,45.0,46.0,36.2,25.0,85,49,18,29.85,29.77,4,1,10,0.00
2013-5-1,83.0,57.6,40.0,45.0,38.2,30.0,85,54,20,29.94,29.83,4,1,12,0.00
2013-5-2,85.0,59.3,39.0,55.0,42.6,39.0,99,61,24,29.94,29.85,3,1,7,0.00
2013-5-3,79.0,57.7,45.0,44.0,40.5,34.0,91,57,23,29.91,29.86,3,2,8,0.00
2013-5-4,83.0,56.3,39.0,49.0,42.1,38.0,99,66,23,29.88,29.80,4,1,8,0.00
2013-5-5,79.0,54.9,40.0,45.0,40.4,37.0,92,63,27,29.83,29.77,3,1,10,0.00
2013-5-6,83.0,58.1,41.0,53.0,46.2,40.0,99,69,32,29.80,29.74,3,1,7,0.00
2013-5-7,88.0,62.0,43.0,59.0,52.4,42.0,99,75,37,29.74,29.68,3,1,7,0.00
2013-5-8,70.0,58.7,49.0,63.0,56.7,49.0,99,93,70,29.71,29.62,3,1,10,0.00
2013-5-9,75.0,58.7,49.0,61.0,55.3,49.0,99,89,57,29.65,29.56,3,1,7,0.00
2013-5-10,94.0,65.4,47.0,65.0,51.9,-99.9,99,70,29,29.62,29.59,3,1,8,0.00
2013-5-11,71.0,59.7,55.0,63.0,58.5,54.0,99,95,73,29.59,29.44,4,1,11,0.01
2013-5-12,80.0,61.3,51.0,57.0,41.2,-99.9,99,56,24,29.59,29.41,5,3,12,0.00
2013-5-13,64.0,52.4,44.0,33.0,27.4,22.0,57,39,27,29.68,29.59,5,3,12,0.00
2013-5-14,72.0,53.2,40.0,40.0,32.1,23.0,84,50,21,29.71,29.65,3,2,7,0.00
2013-5-15,71.0,55.6,41.0,54.0,47.2,39.0,97,75,38,29.68,29.44,4,2,9,0.00
2013-5-16,87.0,59.7,50.0,57.0,30.9,-99.9,99,65,28,29.53,29.44,4,1,8,0.00
2013-5-17,82.0,64.9,54.0,52.0,35.0,-99.9,89,43,24,29.77,29.53,3,1,7,0.00
2013-5-18,79.0,58.5,49.0,53.0,48.8,42.0,92,72,33,29.83,29.77,2,1,6,0.00
2013-5-19,57.0,54.6,50.0,57.0,53.3,45.0,99,95,68,29.83,29.74,3,2,9,0.00
2013-5-20,87.0,67.1,55.0,68.0,61.4,55.0,99,84,53,29.74,29.62,3,1,8,0.00
2013-5-21,95.0,73.2,58.0,73.0,64.8,58.0,99,78,48,29.62,29.54,3,1,8,0.00
2013-5-22,84.0,68.2,58.0,69.0,63.3,58.0,99,86,54,29.59,29.53,3,1,6,0.00
2013-5-23,84.0,67.1,61.0,69.0,63.5,61.0,99,89,58,29.57,29.47,4,2,12,0.00
2013-5-24,76.0,55.9,45.0,67.0,54.1,42.0,99,94,68,29.59,29.41,5,2,12,0.00
2013-5-25,55.0,46.8,39.0,45.0,41.3,36.0,99,82,56,29.62,29.56,6,3,13,0.00
2013-5-26,70.0,62.1,46.0,38.0,35.9,34.0,68,39,30,29.76,29.61,6,2,10,0.00
2013-5-27,83.0,61.2,40.0,49.0,40.8,34.0,95,54,20,29.77,29.71,4,1,8,0.00
2013-5-28,85.0,58.9,48.0,56.0,50.9,45.0,99,80,30,29.77,29.71,3,1,6,0.00
2013-5-29,87.0,68.0,54.0,69.0,60.8,54.0,99,80,53,29.71,29.65,2,1,6,0.00
2013-5-30,102.0,79.1,62.0,71.0,64.1,59.0,99,65,31,29.71,29.68,3,1,8,0.00
2013-5-31,105.0,80.2,64.0,72.0,65.0,60.0,96,64,33,29.71,29.65,4,1,8,0.00
2013-6-1,96.0,77.1,64.0,71.0,65.5,61.0,96,70,42,29.65,29.59,5,2,10,0.00
2013-6-2,93.0,74.8,62.0,70.0,63.5,-99.9,97,73,46,29.59,29.50,4,2,8,0.00
2013-6-3,86.0,69.7,64.0,71.0,65.8,51.0,99,89,51,29.56,29.50,3,1,6,0.00
2013-6-4,83.0,68.9,55.0,50.0,44.3,38.0,73,43,27,29.70,29.56,4,2,8,0.00
2013-6-5,88.0,67.8,54.0,54.0,45.1,38.0,95,48,25,29.77,29.68,4,1,9,0.00
2013-6-6,82.0,64.3,55.0,60.0,55.8,46.0,99,78,34,29.73,29.65,4,2,11,0.00
2013-6-7,62.0,59.0,56.0,62.0,59.0,56.0,99,99,97,29.65,29.38,3,1,10,0.00
2013-6-8,84.0,67.5,54.0,65.0,59.8,54.0,99,79,51,29.65,29.35,3,2,7,0.00
2013-6-9,95.0,72.3,57.0,65.0,58.9,54.0,99,68,29,29.74,29.65,16,1,76,0.00
2013-6-10,74.0,64.3,61.0,66.0,62.7,60.0,99,94,74,29.74,29.53,4,1,9,0.00
2013-6-11,85.0,72.4,64.0,71.0,64.1,57.0,99,77,51,29.53,29.38,5,2,10,0.00
2013-6-12,82.0,70.1,61.0,58.0,53.7,51.0,79,57,39,29.53,29.44,5,2,11,0.00
2013-6-13,68.0,61.0,54.0,61.0,57.4,54.0,99,88,71,29.53,29.29,5,2,13,0.00
2013-6-14,74.0,59.7,51.0,55.0,52.6,49.0,99,80,48,29.56,29.29,3,2,10,0.00
2013-6-15,92.0,69.6,55.0,59.0,54.4,47.0,91,63,27,29.62,29.56,3,1,7,0.00
2013-6-16,84.0,70.6,56.0,66.0,59.4,52.0,99,72,34,29.62,29.47,4,1,8,0.00
2013-6-17,92.0,76.0,65.0,69.0,64.6,60.0,97,70,46,29.59,29.50,4,2,10,0.00
2013-6-18,101.0,70.0,63.0,69.0,64.9,63.0,99,86,36,29.56,29.53,3,0,6,0.00
2013-6-19,88.0,67.6,55.0,64.0,53.8,43.0,99,68,26,29.74,29.56,3,1,8,0.00
2013-6-20,88.0,68.0,54.0,59.0,54.4,51.0,96,67,35,29.80,29.74,4,1,9,0.00
2013-6-22,87.0,84.2,83.0,62.0,60.3,59.0,46,44,44,29.77,29.77,3,3,9,0.00
2013-6-24,89.0,83.8,80.0,71.0,66.9,63.0,65,57,48,29.65,29.61,3,2,6,0.00
2013-6-25,97.0,78.9,68.0,71.0,63.7,-99.9,88,65,44,29.65,29.51,4,2,8,0.00
2013-6-26,91.0,78.6,72.0,70.0,67.4,64.0,91,70,48,29.53,29.50,3,2,7,0.00
2013-6-27,88.0,75.4,70.0,72.0,69.8,67.0,99,83,57,29.53,29.38,4,1,9,0.00
2013-6-28,90.0,75.9,68.0,72.0,69.6,65.0,99,83,55,29.38,29.30,5,2,10,0.00
2013-6-29,89.0,73.6,67.0,71.0,68.2,65.0,97,84,51,29.44,29.32,4,2,9,0.00
2013-6-30,89.0,71.8,66.0,74.0,69.9,66.0,99,94,62,29.59,29.44,4,2,8,0.00
2013-7-1,79.0,71.5,67.0,76.0,71.0,67.0,99,98,83,29.68,29.59,3,2,8,0.00
2013-7-2,82.0,73.4,70.0,74.0,71.1,70.0,99,93,76,29.77,29.68,4,2,9,1.24
2013-7-3,81.0,72.1,67.0,81.0,72.1,67.0,100,99,95,29.80,29.74,3,1,8,0.34
2013-7-4,91.0,78.0,69.0,76.0,72.3,69.0,100,84,60,29.80,29.74,3,2,8,4.94
2013-7-5,92.0,78.9,73.0,74.0,71.7,69.0,98,81,56,29.77,29.71,3,1,8,0.00
2013-7-6,97.0,81.9,74.0,75.0,71.0,68.0,94,73,44,29.74,29.65,3,1,7,0.00
2013-7-12,81.0,72.4,66.0,70.0,67.2,65.0,99,85,61,29.68,29.65,2,1,8,0.00
2013-7-13,89.0,75.0,66.0,75.0,71.4,66.0,99,90,62,29.80,29.68,3,1,7,0.00
2013-7-14,92.0,78.5,71.0,75.0,72.4,71.0,99,83,53,29.83,29.79,3,1,8,1.42
2013-7-15,97.0,82.9,74.0,74.0,71.1,68.0,89,70,41,29.80,29.71,2,0,5,0.00
2013-7-16,97.0,84.1,75.0,72.0,66.6,63.0,85,59,35,29.74,29.71,2,0,5,0.00
2013-7-17,99.0,80.3,74.0,70.0,67.3,65.0,77,66,36,29.74,29.68,3,1,7,0.00
2013-7-18,102.0,84.1,75.0,75.0,70.9,66.0,87,67,33,29.68,29.62,3,1,6,0.00
2013-7-19,101.0,86.8,80.0,78.0,75.1,73.0,86,70,49,29.62,29.50,5,2,9,0.00
2013-7-20,96.0,85.7,77.0,75.0,70.5,67.0,80,62,47,29.53,29.46,5,2,11,0.00
2013-7-21,92.0,79.2,72.0,71.0,67.9,59.0,92,71,38,29.62,29.53,2,1,6,0.00
2013-7-22,88.0,75.1,72.0,75.0,71.9,70.0,99,90,66,29.62,29.53,3,0,7,0.00
2013-7-23,91.0,76.8,71.0,77.0,72.7,70.0,99,88,59,29.50,29.35,3,1,10,0.00
2013-7-24,88.0,77.3,68.0,74.0,64.9,54.0,99,68,47,29.59,29.38,3,1,8,0.00
2013-7-25,67.0,63.3,61.0,61.0,56.1,52.0,99,78,63,29.65,29.59,3,1,8,0.00
2013-7-26,83.0,69.4,60.0,67.0,61.3,59.0,99,78,46,29.65,29.62,3,1,6,0.00
2013-7-27,87.0,72.8,62.0,67.0,63.5,59.0,99,76,41,29.68,29.62,4,2,9,0.00
2013-7-28,83.0,71.4,64.0,71.0,67.1,64.0,99,87,55,29.62,29.59,3,1,8,0.00
2013-7-29,89.0,73.8,66.0,70.0,63.4,49.0,99,74,33,29.68,29.60,3,1,7,0.00
2013-7-30,86.0,72.7,61.0,59.0,54.9,52.0,85,55,37,29.71,29.68,3,1,6,0.00
2013-7-31,87.0,71.2,61.0,64.0,58.8,56.0,86,67,38,29.71,29.68,3,1,9,0.00
2013-8-1,78.0,68.6,64.0,68.0,65.3,62.0,99,89,69,29.68,29.53,3,1,8,0.00
2013-8-2,85.0,73.0,63.0,71.0,62.9,57.0,99,75,43,29.58,29.50,4,1,8,0.00
2013-8-3,79.0,72.5,66.0,67.0,62.8,56.0,85,72,56,29.59,29.53,3,1,9,0.00
2013-8-4,86.0,71.0,62.0,64.0,56.4,49.0,90,63,36,29.59,29.53,4,1,8,0.00
2013-8-5,80.0,67.9,59.0,59.0,49.8,44.0,74,55,30,29.65,29.59,3,1,6,0.00
2013-8-6,84.0,68.2,58.0,59.0,56.3,52.0,98,70,33,29.71,29.65,3,1,8,0.00
2013-8-7,83.0,71.9,65.0,68.0,62.7,58.0,91,74,52,29.73,29.68,4,2,9,0.00
2013-8-8,85.0,72.3,66.0,73.0,69.7,66.0,99,92,67,29.68,29.65,4,2,9,0.00
2013-8-9,86.0,75.7,71.0,75.0,73.3,70.0,99,92,70,29.65,29.50,4,2,9,0.00
2013-8-10,87.0,77.0,68.0,72.0,61.2,55.0,95,61,40,29.66,29.53,4,1,8,0.00
2013-8-11,83.0,70.2,58.0,64.0,56.8,51.0,91,65,34,29.71,29.65,3,1,6,0.00
2013-8-21,91.0,74.1,64.0,73.0,65.9,58.0,99,80,38,29.74,29.68,3,1,8,0.00
2013-8-22,83.0,72.8,66.0,74.0,69.9,66.0,99,91,68,29.68,29.56,2,0,5,0.00
2013-8-23,85.0,73.4,67.0,69.0,60.0,53.0,99,67,35,29.68,29.56,2,0,6,0.00
2013-8-24,80.0,67.6,60.0,59.0,55.0,48.0,95,66,36,29.85,29.68,3,1,6,0.00
2013-8-25,83.0,65.3,55.0,65.0,51.3,-99.9,99,69,37,29.88,29.77,3,1,7,0.00
2013-8-26,86.0,73.5,66.0,68.0,59.9,54.0,89,63,45,29.77,29.59,4,1,7,0.00
2013-8-27,84.0,73.8,69.0,72.0,68.0,67.0,97,83,58,29.59,29.50,3,1,9,0.00
2013-8-31,86.0,75.8,69.0,73.0,70.5,68.0,96,84,66,29.56,29.50,3,1,8,0.00
2013-9-1,86.0,73.8,70.0,74.0,68.3,-99.9,99,88,67,29.56,29.52,3,1,7,0.00
2013-9-2,85.0,75.2,70.0,77.0,73.0,70.0,99,93,70,29.53,29.44,2,1,5,0.71
2013-9-3,83.0,74.2,67.0,77.0,65.3,55.0,99,77,46,29.56,29.44,3,1,7,1.22
2013-9-4,85.0,71.4,63.0,58.0,55.9,51.0,83,61,31,29.62,29.56,3,2,8,0.00
2013-9-5,83.0,68.7,60.0,60.0,52.3,43.0,87,59,31,29.71,29.59,3,1,7,0.00
2013-9-6,72.0,59.8,52.0,49.0,44.9,42.0,84,60,36,29.77,29.71,2,1,5,0.00
2013-9-8,84.0,67.7,62.0,63.0,50.4,-99.9,86,59,34,29.68,29.51,4,1,8,0.00
2013-9-9,74.0,60.8,50.0,59.0,49.1,43.0,83,67,41,29.77,29.68,3,1,7,0.00
2013-9-10,83.0,72.9,65.0,71.0,67.2,60.0,94,83,65,29.74,29.68,4,2,9,0.00
2013-9-11,92.0,76.9,71.0,75.0,70.9,69.0,99,84,56,29.71,29.64,4,1,9,0.00
2013-9-12,84.0,73.3,66.0,73.0,69.7,66.0,99,89,69,29.65,29.44,4,1,9,0.00
2013-9-13,76.0,67.6,58.0,67.0,59.7,50.0,99,78,50,29.53,29.39,4,2,9,0.00
2013-9-14,71.0,57.9,52.0,49.0,46.5,44.0,79,67,46,29.71,29.53,3,2,6,0.00
2013-9-15,74.0,58.9,53.0,55.0,43.9,-99.9,93,67,34,29.71,29.68,2,1,6,0.00
2013-9-16,73.0,62.1,56.0,59.0,54.4,46.0,95,78,48,29.77,29.65,2,1,7,0.00
2013-9-17,55.0,54.1,53.0,47.0,45.0,43.0,73,71,70,29.80,29.77,2,1,5,0.00
2013-9-19,77.0,58.0,46.0,56.0,50.7,46.0,99,80,39,29.74,29.68,3,1,6,0.00
2013-9-20,81.0,60.7,48.0,60.0,55.1,48.0,99,85,43,29.68,29.65,3,1,7,0.00
2013-9-21,74.0,64.0,51.0,69.0,62.2,51.0,99,94,78,29.65,29.44,5,2,10,0.00
2013-9-22,73.0,60.4,54.0,66.0,48.7,-99.9,99,72,43,29.56,29.41,4,2,9,0.00
2013-9-23,53.0,53.0,53.0,42.0,42.0,42.0,67,67,67,29.56,29.56,1,1,3,0.00
2013-9-24,71.0,64.6,56.0,45.0,44.1,43.0,66,48,37,29.59,29.56,2,1,6,0.00
2013-9-25,74.0,59.2,46.0,52.0,46.1,42.0,96,65,34,29.59,29.56,1,0,5,0.00
2013-9-26,70.0,58.5,50.0,57.0,53.9,50.0,99,86,61,29.68,29.59,1,0,4,0.00
2013-9-27,71.0,59.2,48.0,52.0,50.5,48.0,99,75,49,29.77,29.68,1,0,4,0.00
2013-9-28,78.0,64.4,52.0,55.0,52.5,51.0,98,68,42,29.82,29.78,2,1,6,0.00
2013-9-29,73.0,55.0,49.0,54.0,47.2,-99.9,99,83,39,29.77,29.68,2,0,5,0.00
2013-9-30,73.0,56.7,47.0,56.0,51.3,47.0,99,85,43,29.68,29.62,2,0,6,0.00
2013-10-1,64.0,60.1,55.0,59.0,57.5,55.0,99,92,82,29.62,29.59,0,0,0,0.00
2013-10-2,83.0,75.4,60.0,61.0,60.0,58.0,94,61,46,29.62,29.56,3,1,7,0.00
2013-10-7,77.0,67.6,59.0,69.0,64.9,51.0,99,92,76,29.65,29.50,6,3,13,0.00
2013-10-8,70.0,57.8,52.0,51.0,44.3,41.0,81,62,37,29.83,29.62,3,1,6,0.00
2013-10-9,68.0,56.1,47.0,49.0,46.7,44.0,90,72,50,29.88,29.82,2,1,7,0.00
2013-10-10,65.0,57.2,53.0,57.0,52.3,48.0,91,84,70,29.80,29.68,3,2,8,0.00
2013-10-11,67.0,61.6,56.0,59.0,56.4,54.0,94,83,74,29.68,29.62,2,2,8,0.00
2013-10-12,72.0,61.5,54.0,55.0,47.8,36.0,81,63,28,29.80,29.68,3,2,9,0.00
2013-10-13,69.0,55.3,51.0,52.0,46.0,-99.9,90,76,54,29.86,29.80,2,1,7,0.00
2013-10-14,69.0,54.5,48.0,50.0,47.9,46.0,96,81,48,29.85,29.79,2,1,5,0.00
2013-10-15,77.0,68.3,65.0,57.0,47.6,44.0,67,48,34,29.74,29.71,3,2,5,0.00
2013-10-16,59.0,59.0,59.0,58.0,58.0,58.0,98,98,98,29.61,29.61,1,1,3,0.00
2013-10-17,75.0,66.4,61.0,62.0,61.4,60.0,99,85,61,29.53,29.44,2,2,6,0.00
2013-10-18,72.0,61.0,55.0,63.0,47.4,41.0,99,63,41,29.62,29.41,4,2,8,0.00
2013-10-19,53.0,47.5,46.0,42.0,40.6,40.0,84,78,66,29.62,29.62,0,0,1,0.00
2013-10-21,55.0,55.0,55.0,45.0,45.0,45.0,69,69,69,29.66,29.66,2,2,5,0.00